Terminal Aerodrome Forecast
Issued by NWS Grand Forks, ND

Home | Current Version | Previous Version | Text Only | Print | Product List | Glossary On
Versions: 1 2 3 4 5 6 7 8 9 10 11 12 13 14 15 16 17 18
475
FTUS43 KFGF 230520
TAFFAR
TAF
KFAR 230520Z 2306/2406 28005KT P6SM OVC025
     FM230800 27005KT P6SM OVC015
     FM231300 25004KT P6SM BKN010
     FM232300 16004KT P6SM BKN015=

USA.gov is the U.S. government's official web portal to all federal, state and local government web resources and services.